Toluca, Mexico

4:15 AM CDT on August 01, 2015 (GMT -0500)
CIMMYT, Toluca Station, San Sebastian | | Change Station
CLOSE
Current Station
Personal Weather Station
Location: San Sebastián, STATE OF MEXICO
Elevation: 8474 ft
Nearby Weather Stations

Elev 8474 ft 19.23 °N, 99.55 °W | Updated 17 minutes ago

Mostly Cloudy
Mostly Cloudy
54.5 °F
Feels Like 54.5 °F
N
0.0
Wind Variable Wind from SSE
Gusts 0.0 mph

Today
High -- | Low -- °F
--% Chance of Precip.
Yesterday
High -- | Low -- °F
Precip. -- in
7:15 AM 8:14 PM
Full, 99% visible
Pressure 29.78 in
Visibility 12.0 miles
Clouds Scattered Clouds 9000 ft
Mostly Cloudy 20000 ft
Dew Point 52 °F
Humidity 90%
Rainfall 0.00 in
Snow Depth Not available.
UV 0.0 out of 12
Pollen Not available.
Air Quality Not available.
Flu Activity Not available.
METAR MMMX 010853Z 06004KT 12SM SCT090 BKN200 15/09 A3034 NOSIG RMK SLP084 57015 956 8/032

More Conditions Fewer Conditions

Pressure 29.78 in
Visibility 12.0 miles
Clouds Scattered Clouds 9000 ft
Mostly Cloudy 20000 ft
Dew Point 52 °F
Humidity 90%
Rainfall 0.00 in
Snow Depth Not available.
UV 0.0 out of 12
Pollen Not available.
Air Quality Not available.
Flu Activity Not available.
METAR MMMX 010853Z 06004KT 12SM SCT090 BKN200 15/09 A3034 NOSIG RMK SLP084 57015 956 8/032

More Conditions Fewer Conditions

10-Day Weather Forecast

×

Almanac

Astronomy

Aug. 01, 2015 Rise Set
Actual Time
Civil Twilight
Nautical Twilight
Astronomical Twilight
Moon
Length of Visible Light
Length of Day
Tomorrow will be .
, % of the Moon is Illuminated

Today's Extremes

Country Highs Country Lows

Community

WunderPhotos

Upload Photos

1,842,905 photos uploaded!

WunderBlogs® & News

Nearby

Air Quality

  Air Quality AQ Index Pollutant
Not available.

Snow Depth

Station Depth Elevation

Earthquake Activity

City Distance Mag. Time & Date
Minimum magnitude displayed is 2.5.

Coastal Water Temperatures

Place Temperature

Stations

Nearby Weather Stations

Station Location Temp. Windchill Dew Point Humidity Wind Precip. Elev Updated Type